sensor_id;sensor_type;location;lat;lon;timestamp;temperature;humidity
10354;DHT22;5223;50.924;13.338;2022-09-28T03:53:20;7.80;99.90
10354;DHT22;5223;50.924;13.338;2022-09-28T03:55:48;7.80;99.90
10354;DHT22;5223;50.924;13.338;2022-09-28T03:58:17;7.70;99.90
10354;DHT22;5223;50.924;13.338;2022-09-28T04:00:45;7.60;99.90
10354;DHT22;5223;50.924;13.338;2022-09-28T04:03:13;7.50;99.90
10354;DHT22;5223;50.924;13.338;2022-09-28T04:05:48;7.50;99.90
10354;DHT22;5223;50.924;13.338;2022-09-28T04:08:19;7.50;99.90
10354;DHT22;5223;50.924;13.338;2022-09-28T04:10:47;7.40;99.90
10354;DHT22;5223;50.924;13.338;2022-09-28T04:13:15;7.30;99.90
10354;DHT22;5223;50.924;13.338;2022-09-28T04:15:51;7.30;99.90
10354;DHT22;5223;50.924;13.338;2022-09-28T04:18:20;7.30;99.90
10354;DHT22;5223;50.924;13.338;2022-09-28T04:20:57;7.30;99.90
10354;DHT22;5223;50.924;13.338;2022-09-28T04:23:26;7.30;99.90
10354;DHT22;5223;50.924;13.338;2022-09-28T04:25:53;7.40;99.90
10354;DHT22;5223;50.924;13.338;2022-09-28T04:28:20;7.30;99.90
10354;DHT22;5223;50.924;13.338;2022-09-28T04:31:08;7.40;99.90
10354;DHT22;5223;50.924;13.338;2022-09-28T04:33:36;7.40;99.90
10354;DHT22;5223;50.924;13.338;2022-09-28T04:36:04;7.30;99.90
10354;DHT22;5223;50.924;13.338;2022-09-28T04:38:38;7.40;99.90
10354;DHT22;5223;50.924;13.338;2022-09-28T04:41:06;7.20;99.90
10354;DHT22;5223;50.924;13.338;2022-09-28T04:43:36;7.30;99.90
10354;DHT22;5223;50.924;13.338;2022-09-28T04:46:04;7.20;99.90
10354;DHT22;5223;50.924;13.338;2022-09-28T04:48:37;7.20;99.90
10354;DHT22;5223;50.924;13.338;2022-09-28T04:51:04;7.10;99.90
10354;DHT22;5223;50.924;13.338;2022-09-28T04:53:34;7.20;99.90
10354;DHT22;5223;50.924;13.338;2022-09-28T04:56:09;7.20;99.90
10354;DHT22;5223;50.924;13.338;2022-09-28T04:58:39;7.20;99.90
10354;DHT22;5223;50.924;13.338;2022-09-28T05:01:10;7.20;99.90
10354;DHT22;5223;50.924;13.338;2022-09-28T05:03:39;7.20;99.90
10354;DHT22;5223;50.924;13.338;2022-09-28T05:06:12;7.30;99.90
10354;DHT22;5223;50.924;13.338;2022-09-28T05:08:40;7.20;99.90
10354;DHT22;5223;50.924;13.338;2022-09-28T05:11:12;7.20;99.90
10354;DHT22;5223;50.924;13.338;2022-09-28T05:13:41;7.20;99.90
10354;DHT22;5223;50.924;13.338;2022-09-28T05:16:10;7.30;99.90
10354;DHT22;5223;50.924;13.338;2022-09-28T05:18:37;7.60;99.90
10354;DHT22;5223;50.924;13.338;2022-09-28T05:21:09;8.20;99.90
10354;DHT22;5223;50.924;13.338;2022-09-28T05:23:37;8.40;99.90
10354;DHT22;5223;50.924;13.338;2022-09-28T05:26:04;8.10;99.90
10354;DHT22;5223;50.924;13.338;2022-09-28T05:28:35;7.90;99.90
10354;DHT22;5223;50.924;13.338;2022-09-28T05:31:06;7.80;99.90
10354;DHT22;5223;50.924;13.338;2022-09-28T05:33:33;7.70;99.90
10354;DHT22;5223;50.924;13.338;2022-09-28T05:36:01;7.60;99.90
10354;DHT22;5223;50.924;13.338;2022-09-28T05:38:30;7.50;99.90
10354;DHT22;5223;50.924;13.338;2022-09-28T05:40:59;7.50;99.90
10354;DHT22;5223;50.924;13.338;2022-09-28T05:43:27;7.60;99.90
10354;DHT22;5223;50.924;13.338;2022-09-28T05:45:57;7.50;99.90
10354;DHT22;5223;50.924;13.338;2022-09-28T05:48:25;7.60;99.90
10354;DHT22;5223;50.924;13.338;2022-09-28T05:50:55;7.60;99.90
10354;DHT22;5223;50.924;13.338;2022-09-28T05:53:24;7.70;99.90
10354;DHT22;5223;50.924;13.338;2022-09-28T05:55:51;7.80;99.90
10354;DHT22;5223;50.924;13.338;2022-09-28T05:58:18;7.70;99.90
10354;DHT22;5223;50.924;13.338;2022-09-28T06:00:53;7.80;99.90
10354;DHT22;5223;50.924;13.338;2022-09-28T06:03:24;7.80;99.90
10354;DHT22;5223;50.924;13.338;2022-09-28T06:05:51;7.80;99.90
10354;DHT22;5223;50.924;13.338;2022-09-28T06:08:19;7.80;99.90
10354;DHT22;5223;50.924;13.338;2022-09-28T06:10:47;7.80;99.90
10354;DHT22;5223;50.924;13.338;2022-09-28T06:13:16;7.80;99.90
10354;DHT22;5223;50.924;13.338;2022-09-28T06:15:43;7.80;99.90
10354;DHT22;5223;50.924;13.338;2022-09-28T06:18:12;7.90;99.90
10354;DHT22;5223;50.924;13.338;2022-09-28T06:20:42;8.00;99.90
10354;DHT22;5223;50.924;13.338;2022-09-28T06:23:10;8.00;99.90
10354;DHT22;5223;50.924;13.338;2022-09-28T06:25:38;8.00;99.90
10354;DHT22;5223;50.924;13.338;2022-09-28T06:28:08;8.10;99.90
10354;DHT22;5223;50.924;13.338;2022-09-28T06:30:38;8.10;99.90
10354;DHT22;5223;50.924;13.338;2022-09-28T06:33:06;8.20;99.90
10354;DHT22;5223;50.924;13.338;2022-09-28T06:35:35;8.20;99.90
10354;DHT22;5223;50.924;13.338;2022-09-28T06:38:04;8.20;99.90
10354;DHT22;5223;50.924;13.338;2022-09-28T06:40:32;8.10;99.90
10354;DHT22;5223;50.924;13.338;2022-09-28T06:43:00;8.30;99.90
10354;DHT22;5223;50.924;13.338;2022-09-28T06:45:29;8.30;99.90
10354;DHT22;5223;50.924;13.338;2022-09-28T06:48:02;8.40;99.90
10354;DHT22;5223;50.924;13.338;2022-09-28T06:50:37;8.40;99.90
10354;DHT22;5223;50.924;13.338;2022-09-28T06:53:11;8.30;99.90
10354;DHT22;5223;50.924;13.338;2022-09-28T06:55:43;8.30;99.90
10354;DHT22;5223;50.924;13.338;2022-09-28T06:58:15;8.20;99.90
10354;DHT22;5223;50.924;13.338;2022-09-28T07:00:52;8.20;99.90
10354;DHT22;5223;50.924;13.338;2022-09-28T07:03:24;8.30;99.90
10354;DHT22;5223;50.924;13.338;2022-09-28T07:05:52;8.30;99.90
10354;DHT22;5223;50.924;13.338;2022-09-28T07:08:24;8.40;99.90
10354;DHT22;5223;50.924;13.338;2022-09-28T07:10:53;8.30;99.90
10354;DHT22;5223;50.924;13.338;2022-09-28T07:13:23;8.40;99.90
10354;DHT22;5223;50.924;13.338;2022-09-28T07:15:55;8.40;99.90
10354;DHT22;5223;50.924;13.338;2022-09-28T07:18:22;8.40;99.90
10354;DHT22;5223;50.924;13.338;2022-09-28T07:20:55;8.50;99.90
10354;DHT22;5223;50.924;13.338;2022-09-28T07:23:26;8.40;99.90
10354;DHT22;5223;50.924;13.338;2022-09-28T07:25:55;8.30;99.90
10354;DHT22;5223;50.924;13.338;2022-09-28T07:28:22;8.30;99.90
10354;DHT22;5223;50.924;13.338;2022-09-28T07:30:56;8.30;99.90
10354;DHT22;5223;50.924;13.338;2022-09-28T07:33:23;8.20;99.90
10354;DHT22;5223;50.924;13.338;2022-09-28T07:35:54;8.30;99.90
10354;DHT22;5223;50.924;13.338;2022-09-28T07:38:22;8.30;99.90
10354;DHT22;5223;50.924;13.338;2022-09-28T07:40:52;8.30;99.90
10354;DHT22;5223;50.924;13.338;2022-09-28T07:43:36;8.20;99.90
10354;DHT22;5223;50.924;13.338;2022-09-28T07:46:07;8.30;99.90
10354;DHT22;5223;50.924;13.338;2022-09-28T07:48:37;8.30;99.90
10354;DHT22;5223;50.924;13.338;2022-09-28T07:51:06;8.30;99.90
10354;DHT22;5223;50.924;13.338;2022-09-28T07:53:34;8.30;99.90
10354;DHT22;5223;50.924;13.338;2022-09-28T07:56:07;8.20;99.90
10354;DHT22;5223;50.924;13.338;2022-09-28T07:58:38;8.20;99.90
10354;DHT22;5223;50.924;13.338;2022-09-28T08:01:09;8.10;99.90
10354;DHT22;5223;50.924;13.338;2022-09-28T08:03:36;8.00;99.90
10354;DHT22;5223;50.924;13.338;2022-09-28T08:06:05;8.00;99.90
10354;DHT22;5223;50.924;13.338;2022-09-28T08:08:37;8.00;99.90
10354;DHT22;5223;50.924;13.338;2022-09-28T08:11:10;7.90;99.90
10354;DHT22;5223;50.924;13.338;2022-09-28T08:13:40;7.70;99.90
10354;DHT22;5223;50.924;13.338;2022-09-28T08:16:08;7.40;99.90
10354;DHT22;5223;50.924;13.338;2022-09-28T08:18:35;7.30;99.90
10354;DHT22;5223;50.924;13.338;2022-09-28T08:21:04;7.30;99.90
10354;DHT22;5223;50.924;13.338;2022-09-28T08:23:45;7.20;99.90
10354;DHT22;5223;50.924;13.338;2022-09-28T08:26:15;7.10;99.90
10354;DHT22;5223;50.924;13.338;2022-09-28T08:28:43;7.10;99.90
10354;DHT22;5223;50.924;13.338;2022-09-28T08:31:12;7.10;99.90
10354;DHT22;5223;50.924;13.338;2022-09-28T08:33:39;7.20;99.90
10354;DHT22;5223;50.924;13.338;2022-09-28T08:36:08;7.30;99.90
10354;DHT22;5223;50.924;13.338;2022-09-28T08:38:35;7.40;99.90
10354;DHT22;5223;50.924;13.338;2022-09-28T08:41:16;7.50;99.90
10354;DHT22;5223;50.924;13.338;2022-09-28T08:44:13;7.60;99.90
10354;DHT22;5223;50.924;13.338;2022-09-28T08:46:44;7.60;99.90
10354;DHT22;5223;50.924;13.338;2022-09-28T08:49:17;7.50;99.90
10354;DHT22;5223;50.924;13.338;2022-09-28T08:51:49;7.50;99.90
10354;DHT22;5223;50.924;13.338;2022-09-28T08:54:25;7.50;99.90
10354;DHT22;5223;50.924;13.338;2022-09-28T08:56:58;7.60;99.90
10354;DHT22;5223;50.924;13.338;2022-09-28T08:59:38;7.60;99.90
10354;DHT22;5223;50.924;13.338;2022-09-28T09:02:17;7.60;99.90
10354;DHT22;5223;50.924;13.338;2022-09-28T09:04:45;7.50;99.90
10354;DHT22;5223;50.924;13.338;2022-09-28T09:07:36;7.60;99.90
10354;DHT22;5223;50.924;13.338;2022-09-28T09:10:26;7.80;99.90
10354;DHT22;5223;50.924;13.338;2022-09-28T09:13:07;7.80;99.90
10354;DHT22;5223;50.924;13.338;2022-09-28T09:15:45;7.90;99.90
10354;DHT22;5223;50.924;13.338;2022-09-28T09:18:22;8.20;99.90
10354;DHT22;5223;50.924;13.338;2022-09-28T09:20:55;8.30;99.90
10354;DHT22;5223;50.924;13.338;2022-09-28T09:23:32;8.60;99.90
10354;DHT22;5223;50.924;13.338;2022-09-28T09:26:07;8.90;99.90
10354;DHT22;5223;50.924;13.338;2022-09-28T09:29:01;8.70;99.90
10354;DHT22;5223;50.924;13.338;2022-09-28T09:31:43;8.70;99.90
10354;DHT22;5223;50.924;13.338;2022-09-28T09:34:37;8.60;99.90
10354;DHT22;5223;50.924;13.338;2022-09-28T09:40:21;8.50;99.90
10354;DHT22;5223;50.924;13.338;2022-09-28T09:43:00;8.70;99.90
10354;DHT22;5223;50.924;13.338;2022-09-28T09:45:45;9.00;99.90
10354;DHT22;5223;50.924;13.338;2022-09-28T09:48:16;9.00;99.90
10354;DHT22;5223;50.924;13.338;2022-09-28T09:50:48;9.20;99.90
10354;DHT22;5223;50.924;13.338;2022-09-28T09:53:24;9.30;99.90
10354;DHT22;5223;50.924;13.338;2022-09-28T09:55:55;9.70;99.90
10354;DHT22;5223;50.924;13.338;2022-09-28T09:58:27;10.00;99.90
10354;DHT22;5223;50.924;13.338;2022-09-28T10:01:00;9.80;99.90
10354;DHT22;5223;50.924;13.338;2022-09-28T10:03:33;10.10;99.90
10354;DHT22;5223;50.924;13.338;2022-09-28T10:06:06;10.20;99.90
10354;DHT22;5223;50.924;13.338;2022-09-28T10:08:46;10.40;99.90
10354;DHT22;5223;50.924;13.338;2022-09-28T10:11:17;10.00;99.90
10354;DHT22;5223;50.924;13.338;2022-09-28T10:13:46;9.70;99.90
10354;DHT22;5223;50.924;13.338;2022-09-28T10:16:18;9.80;99.90
10354;DHT22;5223;50.924;13.338;2022-09-28T10:18:50;9.80;99.90
10354;DHT22;5223;50.924;13.338;2022-09-28T10:21:19;9.90;99.90
10354;DHT22;5223;50.924;13.338;2022-09-28T10:23:54;10.00;99.90
10354;DHT22;5223;50.924;13.338;2022-09-28T10:26:24;10.20;99.90
10354;DHT22;5223;50.924;13.338;2022-09-28T10:29:01;10.10;99.90
10354;DHT22;5223;50.924;13.338;2022-09-28T10:31:36;10.00;99.90
10354;DHT22;5223;50.924;13.338;2022-09-28T10:34:04;9.80;99.90
10354;DHT22;5223;50.924;13.338;2022-09-28T10:59:35;8.80;99.90
10354;DHT22;5223;50.924;13.338;2022-09-28T11:02:19;9.30;99.90
10354;DHT22;5223;50.924;13.338;2022-09-28T11:04:51;11.10;99.90
10354;DHT22;5223;50.924;13.338;2022-09-28T11:07:22;12.40;99.90
10354;DHT22;5223;50.924;13.338;2022-09-28T11:09:55;12.40;99.90
10354;DHT22;5223;50.924;13.338;2022-09-28T11:12:27;11.70;99.90
10354;DHT22;5223;50.924;13.338;2022-09-28T11:14:59;10.70;99.90
10354;DHT22;5223;50.924;13.338;2022-09-28T11:17:33;10.10;99.90
10354;DHT22;5223;50.924;13.338;2022-09-28T11:20:28;9.90;99.90
10354;DHT22;5223;50.924;13.338;2022-09-28T11:23:00;9.80;99.90
10354;DHT22;5223;50.924;13.338;2022-09-28T11:25:58;9.50;99.90
10354;DHT22;5223;50.924;13.338;2022-09-28T11:28:30;9.50;99.90
10354;DHT22;5223;50.924;13.338;2022-09-28T11:31:00;9.30;99.90
10354;DHT22;5223;50.924;13.338;2022-09-28T11:33:35;9.50;99.90
10354;DHT22;5223;50.924;13.338;2022-09-28T11:36:21;9.50;99.90
10354;DHT22;5223;50.924;13.338;2022-09-28T11:38:58;9.50;99.90
10354;DHT22;5223;50.924;13.338;2022-09-28T11:41:38;9.40;99.90
10354;DHT22;5223;50.924;13.338;2022-09-28T11:44:20;9.40;99.90
10354;DHT22;5223;50.924;13.338;2022-09-28T11:46:56;9.50;99.90
10354;DHT22;5223;50.924;13.338;2022-09-28T11:49:32;10.40;99.90
10354;DHT22;5223;50.924;13.338;2022-09-28T11:52:05;12.30;99.90
10354;DHT22;5223;50.924;13.338;2022-09-28T11:54:39;13.50;99.90
10354;DHT22;5223;50.924;13.338;2022-09-28T11:57:13;12.90;99.90
10354;DHT22;5223;50.924;13.338;2022-09-28T11:59:50;12.20;99.90
10354;DHT22;5223;50.924;13.338;2022-09-28T12:02:22;11.10;99.90
10354;DHT22;5223;50.924;13.338;2022-09-28T12:04:56;10.80;99.90
10354;DHT22;5223;50.924;13.338;2022-09-28T12:07:29;10.30;99.90
10354;DHT22;5223;50.924;13.338;2022-09-28T12:10:06;9.90;99.90
10354;DHT22;5223;50.924;13.338;2022-09-28T12:12:38;9.90;99.90
10354;DHT22;5223;50.924;13.338;2022-09-28T12:15:14;10.00;99.90
10354;DHT22;5223;50.924;13.338;2022-09-28T12:17:47;10.00;99.90
10354;DHT22;5223;50.924;13.338;2022-09-28T12:20:19;9.90;99.90
10354;DHT22;5223;50.924;13.338;2022-09-28T12:22:55;9.70;99.90
10354;DHT22;5223;50.924;13.338;2022-09-28T12:25:34;9.70;99.90
10354;DHT22;5223;50.924;13.338;2022-09-28T12:28:06;9.70;99.90
10354;DHT22;5223;50.924;13.338;2022-09-28T12:30:38;9.70;99.90
10354;DHT22;5223;50.924;13.338;2022-09-28T12:33:11;9.60;99.90
10354;DHT22;5223;50.924;13.338;2022-09-28T12:35:54;9.70;99.90
10354;DHT22;5223;50.924;13.338;2022-09-28T12:38:40;9.90;99.90
10354;DHT22;5223;50.924;13.338;2022-09-28T12:41:22;10.20;99.90
10354;DHT22;5223;50.924;13.338;2022-09-28T12:44:06;10.20;99.90
10354;DHT22;5223;50.924;13.338;2022-09-28T12:46:46;10.40;99.90
10354;DHT22;5223;50.924;13.338;2022-09-28T12:49:26;10.10;99.90
10354;DHT22;5223;50.924;13.338;2022-09-28T12:51:58;10.10;99.90
10354;DHT22;5223;50.924;13.338;2022-09-28T12:54:43;10.60;99.90
10354;DHT22;5223;50.924;13.338;2022-09-28T12:57:33;10.60;99.90
10354;DHT22;5223;50.924;13.338;2022-09-28T13:00:04;11.00;99.90
10354;DHT22;5223;50.924;13.338;2022-09-28T13:02:59;11.20;99.90
10354;DHT22;5223;50.924;13.338;2022-09-28T13:05:48;10.80;99.90
10354;DHT22;5223;50.924;13.338;2022-09-28T13:08:29;11.00;99.90
10354;DHT22;5223;50.924;13.338;2022-09-28T13:11:04;11.00;99.90
10354;DHT22;5223;50.924;13.338;2022-09-28T13:13:42;10.50;99.90
10354;DHT22;5223;50.924;13.338;2022-09-28T13:16:18;10.40;99.90
10354;DHT22;5223;50.924;13.338;2022-09-28T13:18:51;10.30;99.90
10354;DHT22;5223;50.924;13.338;2022-09-28T13:21:26;10.70;99.90
10354;DHT22;5223;50.924;13.338;2022-09-28T13:24:15;11.00;99.90
10354;DHT22;5223;50.924;13.338;2022-09-28T13:26:49;10.80;99.90
10354;DHT22;5223;50.924;13.338;2022-09-28T13:29:20;10.80;99.90
10354;DHT22;5223;50.924;13.338;2022-09-28T13:31:51;10.90;99.90
10354;DHT22;5223;50.924;13.338;2022-09-28T13:34:22;10.60;99.90
10354;DHT22;5223;50.924;13.338;2022-09-28T13:37:19;10.50;99.90
10354;DHT22;5223;50.924;13.338;2022-09-28T13:39:52;10.40;99.90
10354;DHT22;5223;50.924;13.338;2022-09-28T13:42:31;10.50;99.90
10354;DHT22;5223;50.924;13.338;2022-09-28T13:45:31;10.70;99.90
10354;DHT22;5223;50.924;13.338;2022-09-28T13:48:11;11.00;99.90
10354;DHT22;5223;50.924;13.338;2022-09-28T13:51:05;11.10;99.90
10354;DHT22;5223;50.924;13.338;2022-09-28T13:53:46;11.00;99.90
10354;DHT22;5223;50.924;13.338;2022-09-28T13:56:29;11.00;99.90
10354;DHT22;5223;50.924;13.338;2022-09-28T13:59:13;11.20;99.90
10354;DHT22;5223;50.924;13.338;2022-09-28T14:01:50;12.10;99.90
10354;DHT22;5223;50.924;13.338;2022-09-28T14:04:21;12.50;99.90
10354;DHT22;5223;50.924;13.338;2022-09-28T14:06:53;12.40;99.90
10354;DHT22;5223;50.924;13.338;2022-09-28T14:12:49;11.10;99.90
10354;DHT22;5223;50.924;13.338;2022-09-28T14:15:41;11.60;99.90
10354;DHT22;5223;50.924;13.338;2022-09-28T14:18:22;11.30;99.90
10354;DHT22;5223;50.924;13.338;2022-09-28T14:24:20;10.60;99.90
10354;DHT22;5223;50.924;13.338;2022-09-28T14:30:18;11.10;99.90
10354;DHT22;5223;50.924;13.338;2022-09-28T14:32:53;11.20;99.90
10354;DHT22;5223;50.924;13.338;2022-09-28T14:35:30;10.90;99.90
10354;DHT22;5223;50.924;13.338;2022-09-28T14:38:04;10.80;99.90
10354;DHT22;5223;50.924;13.338;2022-09-28T14:41:00;10.90;99.90
10354;DHT22;5223;50.924;13.338;2022-09-28T14:44:01;10.70;99.90
10354;DHT22;5223;50.924;13.338;2022-09-28T14:46:46;11.10;99.90
10354;DHT22;5223;50.924;13.338;2022-09-28T14:49:43;11.20;99.90
10354;DHT22;5223;50.924;13.338;2022-09-28T14:52:16;10.70;99.90
10354;DHT22;5223;50.924;13.338;2022-09-28T14:54:50;10.60;99.90
10354;DHT22;5223;50.924;13.338;2022-09-28T14:57:25;10.40;99.90
10354;DHT22;5223;50.924;13.338;2022-09-28T14:59:58;10.40;99.90
10354;DHT22;5223;50.924;13.338;2022-09-28T15:02:35;10.50;99.90
10354;DHT22;5223;50.924;13.338;2022-09-28T15:05:12;10.60;99.90
10354;DHT22;5223;50.924;13.338;2022-09-28T15:07:45;10.40;99.90
10354;DHT22;5223;50.924;13.338;2022-09-28T15:10:21;10.40;99.90
10354;DHT22;5223;50.924;13.338;2022-09-28T15:12:51;10.50;99.90
10354;DHT22;5223;50.924;13.338;2022-09-28T15:15:26;10.40;99.90
10354;DHT22;5223;50.924;13.338;2022-09-28T15:18:07;10.30;99.90
10354;DHT22;5223;50.924;13.338;2022-09-28T15:20:40;10.10;99.90
10354;DHT22;5223;50.924;13.338;2022-09-28T15:23:24;10.30;99.90
10354;DHT22;5223;50.924;13.338;2022-09-28T15:25:53;10.10;99.90
10354;DHT22;5223;50.924;13.338;2022-09-28T15:28:22;10.00;99.90
